createdAt,value
2018-08-03T00:00:14.488Z,47.99
2018-08-03T00:02:42.670Z,47.98
2018-08-03T00:05:10.858Z,48.25
2018-08-03T00:07:39.042Z,48.50
2018-08-03T00:10:07.762Z,48.63
2018-08-03T00:12:36.146Z,48.85
2018-08-03T00:15:05.004Z,48.96
2018-08-03T00:17:33.189Z,49.11
2018-08-03T00:20:01.410Z,48.99
2018-08-03T00:22:29.593Z,49.32
2018-08-03T00:24:57.790Z,49.32
2018-08-03T00:27:25.966Z,48.99
2018-08-03T00:29:54.143Z,49.23
2018-08-03T00:32:22.332Z,49.14
2018-08-03T00:34:50.499Z,49.38
2018-08-03T00:37:18.773Z,49.13
2018-08-03T00:39:46.954Z,49.04
2018-08-03T00:42:15.127Z,48.77
2018-08-03T00:44:43.494Z,49.30
2018-08-03T00:47:11.699Z,49.16
2018-08-03T00:49:39.902Z,49.52
2018-08-03T00:52:08.066Z,49.72
2018-08-03T00:54:36.258Z,49.87
2018-08-03T00:57:04.457Z,49.90
2018-08-03T00:59:32.634Z,50.37
2018-08-03T01:02:00.815Z,50.74
2018-08-03T01:04:28.990Z,51.00
2018-08-03T01:06:57.175Z,50.76
2018-08-03T01:09:25.347Z,51.11
2018-08-03T01:11:53.523Z,51.16
2018-08-03T01:14:21.705Z,51.42
2018-08-03T01:16:49.906Z,51.80
2018-08-03T01:19:18.122Z,51.90
2018-08-03T01:21:46.303Z,52.02
2018-08-03T01:24:14.515Z,51.90
2018-08-03T01:26:42.706Z,51.49
2018-08-03T01:29:10.878Z,51.92
2018-08-03T01:31:39.062Z,52.07
2018-08-03T01:34:07.260Z,51.72
2018-08-03T01:36:35.426Z,52.25
2018-08-03T01:39:04.202Z,52.83
2018-08-03T01:41:32.394Z,52.84
2018-08-03T01:44:00.567Z,53.09
2018-08-03T01:46:28.743Z,53.00
2018-08-03T01:48:56.915Z,53.14
2018-08-03T01:51:25.123Z,53.70
2018-08-03T01:53:53.283Z,53.45
2018-08-03T01:56:21.454Z,53.93
2018-08-03T01:58:49.660Z,53.93
2018-08-03T02:01:17.822Z,54.63
2018-08-03T02:03:46.014Z,54.56
2018-08-03T02:06:14.211Z,54.94
2018-08-03T02:08:42.398Z,54.91
2018-08-03T02:11:10.575Z,54.96
2018-08-03T02:13:38.756Z,55.06
2018-08-03T02:16:07.278Z,54.59
2018-08-03T02:18:35.448Z,54.52
2018-08-03T02:21:03.694Z,54.22
2018-08-03T02:23:31.938Z,53.72
2018-08-03T02:26:00.139Z,54.51
2018-08-03T02:28:28.327Z,54.46
2018-08-03T02:30:56.498Z,54.10
2018-08-03T02:33:24.714Z,53.57
2018-08-03T02:35:52.900Z,53.31
2018-08-03T02:38:21.079Z,53.33
2018-08-03T02:40:49.250Z,52.88
2018-08-03T02:43:17.422Z,53.55
2018-08-03T02:45:45.610Z,54.08
2018-08-03T02:48:13.790Z,53.39
2018-08-03T02:50:41.975Z,53.42
2018-08-03T02:53:10.154Z,53.89
2018-08-03T02:55:38.322Z,53.50
2018-08-03T02:58:06.507Z,54.01
2018-08-03T03:00:34.734Z,53.81
2018-08-03T03:03:02.915Z,54.04
2018-08-03T03:05:31.102Z,53.32
2018-08-03T03:07:59.348Z,52.95
2018-08-03T03:10:27.518Z,52.92
2018-08-03T03:12:55.702Z,53.12
2018-08-03T03:15:23.870Z,53.28
2018-08-03T03:17:52.052Z,53.43
2018-08-03T03:20:20.242Z,53.14
2018-08-03T03:22:48.425Z,53.33
2018-08-03T03:25:16.713Z,54.14
2018-08-03T03:27:44.870Z,54.45
2018-08-03T03:30:13.052Z,54.39
2018-08-03T03:32:41.280Z,53.81
2018-08-03T03:35:09.430Z,53.46
2018-08-03T03:37:37.638Z,53.72
2018-08-03T03:40:05.864Z,53.94
2018-08-03T03:42:34.042Z,55.05
2018-08-03T03:45:02.242Z,55.32
2018-08-03T03:47:30.423Z,55.22
2018-08-03T03:49:58.589Z,55.79
2018-08-03T03:52:26.761Z,55.49
2018-08-03T03:54:54.959Z,55.97
2018-08-03T03:57:23.193Z,56.40
2018-08-03T03:59:51.372Z,55.98
2018-08-03T04:02:19.539Z,56.24
2018-08-03T04:04:47.718Z,55.96
2018-08-03T04:07:15.886Z,56.23
2018-08-03T04:09:44.064Z,56.73
2018-08-03T04:12:12.311Z,55.87
2018-08-03T04:14:40.493Z,55.94
2018-08-03T04:17:08.728Z,55.02
2018-08-03T04:19:36.962Z,55.49
2018-08-03T04:22:05.146Z,56.41
2018-08-03T04:24:33.318Z,56.88
2018-08-03T04:27:01.512Z,56.56
2018-08-03T04:29:29.688Z,57.02
2018-08-03T04:31:58.235Z,56.66
2018-08-03T04:34:26.468Z,56.89
2018-08-03T04:36:54.626Z,56.93
2018-08-03T04:39:22.797Z,57.20
2018-08-03T04:41:50.971Z,57.52
2018-08-03T04:44:19.154Z,57.13
2018-08-03T04:46:47.318Z,57.44
2018-08-03T04:49:15.742Z,57.69
2018-08-03T04:51:43.951Z,57.63
2018-08-03T04:54:12.126Z,57.73
2018-08-03T04:56:40.494Z,57.82
2018-08-03T04:59:08.708Z,58.03
2018-08-03T05:01:36.950Z,57.86
2018-08-03T05:04:05.171Z,57.70
2018-08-03T05:06:33.340Z,57.41
2018-08-03T05:09:01.702Z,57.89
2018-08-03T05:11:29.894Z,57.40
2018-08-03T05:13:58.256Z,57.45
2018-08-03T05:16:26.449Z,57.61
2018-08-03T05:18:55.077Z,58.01
2018-08-03T05:21:23.251Z,57.68
2018-08-03T05:23:51.422Z,58.11
2018-08-03T05:26:19.608Z,58.11
2018-08-03T05:28:47.774Z,58.13
2018-08-03T05:31:15.971Z,57.81
2018-08-03T05:33:44.153Z,58.40
2018-08-03T05:36:12.400Z,57.91
2018-08-03T05:38:40.590Z,58.06
2018-08-03T05:41:09.219Z,57.97
2018-08-03T05:43:37.416Z,58.13
2018-08-03T05:46:05.630Z,57.95
2018-08-03T05:48:33.870Z,58.50
2018-08-03T05:51:02.060Z,58.57
2018-08-03T05:53:30.346Z,57.96
2018-08-03T05:55:58.534Z,56.60
2018-08-03T05:58:26.743Z,57.01
2018-08-03T06:00:55.389Z,56.01
2018-08-03T06:03:23.720Z,54.96
2018-08-03T06:05:52.063Z,55.45
2018-08-03T06:08:20.304Z,56.32
2018-08-03T06:10:48.465Z,56.01
2018-08-03T06:13:16.824Z,55.26
2018-08-03T06:15:45.052Z,55.12
2018-08-03T06:18:13.379Z,55.43
2018-08-03T06:20:41.543Z,55.59
2018-08-03T06:23:09.710Z,55.49
2018-08-03T06:25:37.882Z,54.86
2018-08-03T06:28:06.397Z,54.61
2018-08-03T06:30:34.646Z,53.76
2018-08-03T06:33:02.876Z,53.74
2018-08-03T06:35:31.055Z,52.84
2018-08-03T06:37:59.343Z,52.26
2018-08-03T06:40:27.582Z,51.97
2018-08-03T06:42:55.769Z,52.20
2018-08-03T06:45:23.949Z,52.21
2018-08-03T06:47:52.129Z,53.16
2018-08-03T06:50:20.327Z,52.85
2018-08-03T06:52:48.542Z,52.09
2018-08-03T06:55:16.706Z,51.95
2018-08-03T06:57:44.878Z,51.46
2018-08-03T07:00:15.144Z,52.05
2018-08-03T07:02:43.409Z,51.67
2018-08-03T07:05:11.567Z,51.10
2018-08-03T07:07:39.774Z,51.04
2018-08-03T07:10:08.659Z,51.05
2018-08-03T07:12:36.877Z,50.74
2018-08-03T07:15:05.771Z,51.05
2018-08-03T07:17:34.251Z,50.51
2018-08-03T07:20:02.855Z,49.76
2018-08-03T07:22:30.918Z,49.17
2018-08-03T07:24:59.142Z,49.12
2018-08-03T07:27:27.454Z,48.82
2018-08-03T07:29:55.692Z,48.40
2018-08-03T07:32:24.097Z,48.34
2018-08-03T07:34:52.270Z,47.99
2018-08-03T07:37:20.493Z,48.22
2018-08-03T07:39:48.678Z,48.08
2018-08-03T07:42:17.026Z,48.17
2018-08-03T07:44:45.266Z,47.66
2018-08-03T07:47:13.502Z,47.81
2018-08-03T07:49:42.722Z,47.20
2018-08-03T07:52:10.991Z,47.21
2018-08-03T07:54:39.328Z,46.56
2018-08-03T07:57:07.594Z,46.28
2018-08-03T07:59:35.863Z,46.48
2018-08-03T08:02:04.038Z,47.27
2018-08-03T08:04:36.095Z,46.45
2018-08-03T08:07:04.322Z,46.84
2018-08-03T08:09:32.541Z,46.06
2018-08-03T08:12:00.694Z,45.14
2018-08-03T08:14:28.886Z,45.27
2018-08-03T08:16:57.080Z,45.13
2018-08-03T08:19:25.259Z,45.28
2018-08-03T08:21:53.459Z,45.56
2018-08-03T08:24:21.672Z,45.23
2018-08-03T08:26:49.847Z,44.55
2018-08-03T08:29:18.122Z,45.02
2018-08-03T08:31:46.455Z,45.05
2018-08-03T08:34:14.755Z,44.22
2018-08-03T08:36:43.011Z,43.84
2018-08-03T08:39:13.018Z,43.79
2018-08-03T08:41:42.320Z,43.62
2018-08-03T08:44:10.912Z,43.10
2018-08-03T08:46:39.146Z,43.48
2018-08-03T08:49:07.415Z,43.79
2018-08-03T08:51:35.670Z,43.84
2018-08-03T08:54:03.940Z,42.71
2018-08-03T08:56:32.279Z,43.01
2018-08-03T08:59:00.493Z,42.61
2018-08-03T09:01:28.835Z,43.03
2018-08-03T09:03:57.091Z,41.34
2018-08-03T09:06:25.394Z,41.91
2018-08-03T09:08:53.701Z,40.35
2018-08-03T09:11:21.942Z,40.51
2018-08-03T09:13:50.254Z,40.73
2018-08-03T09:16:18.594Z,40.24
2018-08-03T09:18:47.165Z,40.07
2018-08-03T09:21:15.442Z,40.19
2018-08-03T09:23:43.731Z,39.93
2018-08-03T09:26:12.099Z,40.37
2018-08-03T09:28:40.511Z,39.98
2018-08-03T09:31:08.871Z,38.94
2018-08-03T09:33:37.035Z,39.14
2018-08-03T09:36:05.350Z,38.70
2018-08-03T09:38:33.711Z,38.92
2018-08-03T09:41:03.441Z,37.68
2018-08-03T09:43:31.725Z,37.31
2018-08-03T09:46:00.071Z,36.50
2018-08-03T09:48:28.304Z,36.31
2018-08-03T09:50:56.640Z,36.34
2018-08-03T09:53:24.879Z,36.20
2018-08-03T09:55:53.195Z,35.96
2018-08-03T09:58:21.498Z,34.71
2018-08-03T10:00:55.007Z,35.10
2018-08-03T10:03:23.327Z,33.99
2018-08-03T10:05:51.686Z,34.63
2018-08-03T10:08:20.139Z,34.26
2018-08-03T10:10:48.814Z,33.79
2018-08-03T10:13:17.414Z,33.63
2018-08-03T10:15:45.643Z,33.55
2018-08-03T10:18:13.814Z,33.35
2018-08-03T10:20:42.423Z,33.33
2018-08-03T10:23:10.639Z,32.78
2018-08-03T10:25:38.839Z,32.91
2018-08-03T10:28:07.094Z,32.26
2018-08-03T10:30:35.304Z,31.81
2018-08-03T10:33:03.525Z,30.43
2018-08-03T10:35:31.719Z,29.70
2018-08-03T10:37:59.925Z,30.80
2018-08-03T10:40:28.159Z,29.66
2018-08-03T10:42:56.438Z,30.73
2018-08-03T10:45:24.574Z,29.29
2018-08-03T10:47:52.779Z,28.66
2018-08-03T10:50:21.015Z,28.33
2018-08-03T10:52:49.187Z,28.12
2018-08-03T10:55:17.371Z,28.50
2018-08-03T10:57:45.694Z,27.78
2018-08-03T11:00:30.248Z,28.35
2018-08-03T11:02:58.923Z,27.93
2018-08-03T11:05:27.630Z,27.90
2018-08-03T11:07:55.812Z,28.36
2018-08-03T11:10:24.014Z,27.40
2018-08-03T11:12:52.675Z,27.65
2018-08-03T11:15:20.859Z,28.38
2018-08-03T11:17:50.730Z,27.00
2018-08-03T11:20:19.002Z,26.34
2018-08-03T11:22:47.492Z,26.65
2018-08-03T11:25:15.752Z,26.04
2018-08-03T11:27:43.922Z,26.78
2018-08-03T11:30:12.422Z,26.85
2018-08-03T11:32:40.634Z,26.41
2018-08-03T11:35:09.722Z,26.65
2018-08-03T11:37:37.967Z,26.51
2018-08-03T11:40:06.835Z,26.25
2018-08-03T11:42:35.047Z,26.08
2018-08-03T11:45:03.317Z,26.33
2018-08-03T11:47:31.499Z,25.11
2018-08-03T11:49:59.747Z,25.73
2018-08-03T11:52:27.966Z,26.33
2018-08-03T11:54:56.246Z,25.56
2018-08-03T11:57:24.442Z,25.84
2018-08-03T11:59:52.630Z,25.46
2018-08-03T12:02:20.823Z,25.74
2018-08-03T12:07:35.514Z,25.36
2018-08-03T12:10:03.854Z,26.01
2018-08-03T12:12:32.094Z,25.91
2018-08-03T12:15:00.360Z,25.90
2018-08-03T12:17:28.750Z,25.56
2018-08-03T12:19:57.010Z,25.19
2018-08-03T12:22:25.302Z,25.96
2018-08-03T12:24:53.566Z,25.92
2018-08-03T12:27:21.780Z,25.04
2018-08-03T12:29:50.068Z,25.68
2018-08-03T12:32:18.343Z,25.22
2018-08-03T12:34:46.834Z,25.41
2018-08-03T12:37:15.046Z,25.59
2018-08-03T12:39:43.246Z,26.05
2018-08-03T12:42:11.438Z,24.84
2018-08-03T12:44:40.438Z,25.06
2018-08-03T12:47:08.792Z,25.89
2018-08-03T12:49:37.284Z,26.57
2018-08-03T12:52:05.515Z,25.99
2018-08-03T12:54:33.774Z,26.11
2018-08-03T12:57:02.129Z,27.12
2018-08-03T12:59:30.431Z,27.52
2018-08-03T13:01:59.143Z,27.95
2018-08-03T13:04:27.495Z,27.38
2018-08-03T13:06:55.831Z,27.63
2018-08-03T13:09:24.085Z,26.83
2018-08-03T13:11:52.255Z,27.10
2018-08-03T13:14:20.483Z,27.79
2018-08-03T13:16:49.638Z,27.16
2018-08-03T13:19:17.810Z,27.24
2018-08-03T13:21:46.027Z,26.83
2018-08-03T13:24:14.738Z,26.56
2018-08-03T13:26:43.934Z,27.81
2018-08-03T13:29:12.177Z,27.18
2018-08-03T13:31:40.395Z,26.44
2018-08-03T13:34:08.622Z,26.41
2018-08-03T13:36:36.831Z,25.90
2018-08-03T13:39:08.036Z,26.21
2018-08-03T13:41:36.403Z,26.00
2018-08-03T13:44:04.703Z,26.94
2018-08-03T13:46:32.929Z,26.57
2018-08-03T13:49:01.324Z,27.38
2018-08-03T13:51:29.520Z,27.48
2018-08-03T13:53:57.770Z,26.96
2018-08-03T13:56:26.046Z,27.60
2018-08-03T13:58:54.241Z,27.47
2018-08-03T14:01:33.666Z,26.53
2018-08-03T14:04:02.317Z,26.43
2018-08-03T14:06:30.459Z,26.84
2018-08-03T14:08:58.662Z,26.56
2018-08-03T14:11:26.892Z,26.99
2018-08-03T14:13:55.091Z,26.59
2018-08-03T14:16:23.338Z,26.98
2018-08-03T14:18:51.539Z,26.46
2018-08-03T14:21:20.336Z,26.07
2018-08-03T14:23:48.692Z,27.15
2018-08-03T14:26:22.316Z,25.49
2018-08-03T14:28:50.877Z,25.83
2018-08-03T14:31:20.741Z,26.33
2018-08-03T14:33:50.114Z,26.21
2018-08-03T14:36:19.120Z,26.78
2018-08-03T14:38:47.316Z,26.66
2018-08-03T14:41:15.558Z,25.96
2018-08-03T14:43:43.705Z,26.84
2018-08-03T14:46:11.941Z,26.31
2018-08-03T14:48:41.126Z,26.54
2018-08-03T14:51:09.323Z,27.15
2018-08-03T14:53:37.494Z,26.28
2018-08-03T14:56:05.714Z,25.74
2018-08-03T14:58:34.075Z,26.03
2018-08-03T15:01:02.290Z,26.26
2018-08-03T15:03:30.477Z,26.72
2018-08-03T15:05:58.672Z,26.19
2018-08-03T15:08:26.854Z,26.66
2018-08-03T15:10:55.074Z,26.90
2018-08-03T15:13:23.258Z,27.13
2018-08-03T15:15:51.426Z,27.43
2018-08-03T15:18:19.628Z,27.14
2018-08-03T15:20:47.837Z,27.37
2018-08-03T15:23:16.107Z,27.53
2018-08-03T15:25:44.330Z,27.04
2018-08-03T15:28:12.710Z,27.10
2018-08-03T15:30:41.038Z,27.96
2018-08-03T15:33:10.413Z,28.29
2018-08-03T15:35:38.770Z,27.65
2018-08-03T15:38:08.263Z,28.24
2018-08-03T15:40:36.504Z,27.79
2018-08-03T15:43:04.798Z,27.35
2018-08-03T15:45:33.282Z,27.32
2018-08-03T15:48:01.667Z,27.72
2018-08-03T15:50:30.089Z,27.78
2018-08-03T15:52:59.418Z,27.29
2018-08-03T15:55:27.768Z,27.55
2018-08-03T15:57:55.965Z,27.51
2018-08-03T16:00:24.453Z,27.55
2018-08-03T16:02:52.634Z,27.76
2018-08-03T16:05:20.914Z,27.58
2018-08-03T16:07:49.193Z,27.93
2018-08-03T16:10:17.416Z,27.22
2018-08-03T16:12:45.689Z,27.30
2018-08-03T16:15:13.814Z,27.33
2018-08-03T16:17:41.999Z,27.53
2018-08-03T16:20:10.178Z,27.68
2018-08-03T16:22:38.368Z,27.97
2018-08-03T16:25:06.966Z,27.18
2018-08-03T16:27:35.159Z,27.42
2018-08-03T16:30:03.390Z,27.48
2018-08-03T16:32:31.605Z,28.88
2018-08-03T16:34:59.778Z,27.46
2018-08-03T16:37:27.967Z,27.17
2018-08-03T16:39:56.138Z,27.20
2018-08-03T16:42:24.390Z,27.25
2018-08-03T16:44:52.591Z,26.96
2018-08-03T16:47:20.846Z,27.70
2018-08-03T16:49:49.022Z,27.71
2018-08-03T16:52:17.235Z,28.05
2018-08-03T16:54:46.499Z,27.97
2018-08-03T16:57:14.662Z,27.68
2018-08-03T16:59:42.918Z,28.68
2018-08-03T17:02:11.118Z,28.03
2018-08-03T17:04:39.342Z,28.89
2018-08-03T17:07:07.542Z,28.80
2018-08-03T17:09:35.731Z,28.42
2018-08-03T17:12:03.938Z,28.59
2018-08-03T17:14:32.114Z,28.45
2018-08-03T17:17:00.396Z,27.98
2018-08-03T17:19:28.552Z,28.22
2018-08-03T17:21:57.830Z,28.32
2018-08-03T17:24:26.002Z,28.40
2018-08-03T17:26:54.190Z,28.47
2018-08-03T17:29:22.363Z,28.62
2018-08-03T17:31:50.608Z,28.52
2018-08-03T17:34:18.804Z,28.82
2018-08-03T17:36:46.989Z,28.38
2018-08-03T17:39:15.170Z,28.47
2018-08-03T17:41:43.366Z,29.19
2018-08-03T17:44:11.550Z,29.07
2018-08-03T17:46:39.718Z,29.37
2018-08-03T17:49:07.895Z,29.62
2018-08-03T17:51:41.365Z,29.09
2018-08-03T17:54:11.630Z,29.07
2018-08-03T17:56:40.120Z,29.86
2018-08-03T17:59:08.547Z,29.68
2018-08-03T18:01:36.726Z,30.21
2018-08-03T18:04:04.949Z,29.74
2018-08-03T18:06:33.131Z,30.53
2018-08-03T18:09:01.306Z,30.27
2018-08-03T18:11:29.479Z,30.26
2018-08-03T18:13:57.656Z,30.42
2018-08-03T18:16:25.838Z,30.76
2018-08-03T18:18:54.017Z,30.36
2018-08-03T18:21:22.187Z,30.93
2018-08-03T18:23:50.359Z,30.73
2018-08-03T18:26:18.620Z,31.00
2018-08-03T18:28:46.886Z,31.33
2018-08-03T18:31:15.028Z,31.22
2018-08-03T18:33:43.218Z,31.35
2018-08-03T18:36:11.454Z,31.59
2018-08-03T18:38:39.628Z,31.89
2018-08-03T18:41:07.862Z,32.22
2018-08-03T18:43:36.143Z,32.51
2018-08-03T18:46:04.405Z,32.46
2018-08-03T18:48:32.581Z,32.42
2018-08-03T18:51:00.805Z,32.96
2018-08-03T18:53:28.993Z,32.35
2018-08-03T18:55:57.250Z,33.12
2018-08-03T18:58:25.441Z,32.73
2018-08-03T19:00:53.672Z,33.13
2018-08-03T19:03:21.878Z,33.28
2018-08-03T19:05:50.088Z,33.57
2018-08-03T19:08:18.276Z,33.22
2018-08-03T19:10:46.472Z,33.55
2018-08-03T19:13:14.690Z,33.96
2018-08-03T19:15:45.994Z,33.83
2018-08-03T19:18:14.179Z,34.36
2018-08-03T19:20:42.361Z,34.24
2018-08-03T19:23:10.580Z,33.77
2018-08-03T19:25:38.777Z,34.23
2018-08-03T19:28:06.976Z,34.53
2018-08-03T19:30:35.185Z,34.41
2018-08-03T19:33:03.376Z,35.05
2018-08-03T19:35:31.583Z,35.00
2018-08-03T19:37:59.802Z,34.46
2018-08-03T19:40:28.039Z,34.78
2018-08-03T19:42:56.236Z,35.09
2018-08-03T19:45:24.504Z,35.18
2018-08-03T19:47:52.695Z,35.55
2018-08-03T19:50:20.978Z,35.72
2018-08-03T19:52:49.192Z,35.54
2018-08-03T19:55:17.437Z,36.30
2018-08-03T19:57:45.650Z,35.85
2018-08-03T20:00:13.930Z,35.99
2018-08-03T20:02:42.094Z,36.70
2018-08-03T20:05:10.423Z,36.82
2018-08-03T20:07:38.563Z,36.51
2018-08-03T20:10:07.371Z,37.02
2018-08-03T20:12:35.622Z,36.66
2018-08-03T20:15:04.238Z,37.82
2018-08-03T20:17:32.864Z,37.28
2018-08-03T20:20:01.402Z,37.28
2018-08-03T20:22:29.711Z,37.70
2018-08-03T20:24:58.685Z,37.40
2018-08-03T20:27:26.910Z,37.29
2018-08-03T20:29:55.448Z,37.86
2018-08-03T20:32:23.662Z,38.74
2018-08-03T20:37:32.790Z,38.03
2018-08-03T20:40:01.028Z,38.38
2018-08-03T20:42:31.859Z,38.50
2018-08-03T20:45:00.110Z,38.03
2018-08-03T20:47:28.290Z,38.10
2018-08-03T20:49:56.466Z,38.36
2018-08-03T20:52:24.706Z,37.95
2018-08-03T20:54:52.986Z,38.60
2018-08-03T20:57:21.621Z,38.18
2018-08-03T20:59:49.830Z,38.36
2018-08-03T21:02:18.032Z,38.65
2018-08-03T21:04:46.254Z,38.72
2018-08-03T21:07:14.421Z,38.77
2018-08-03T21:09:42.593Z,38.86
2018-08-03T21:12:10.810Z,39.79
2018-08-03T21:14:38.989Z,39.85
2018-08-03T21:17:07.170Z,40.15
2018-08-03T21:19:35.366Z,40.42
2018-08-03T21:22:03.560Z,40.37
2018-08-03T21:24:31.751Z,40.07
2018-08-03T21:26:59.923Z,39.60
2018-08-03T21:29:28.091Z,39.96
2018-08-03T21:31:56.263Z,40.42
2018-08-03T21:34:24.426Z,40.37
2018-08-03T21:36:52.611Z,40.51
2018-08-03T21:39:20.810Z,40.47
2018-08-03T21:41:48.982Z,41.27
2018-08-03T21:44:17.180Z,40.88
2018-08-03T21:46:45.363Z,41.09
2018-08-03T21:49:13.580Z,41.24
2018-08-03T21:51:41.763Z,41.96
2018-08-03T21:54:09.951Z,42.03
2018-08-03T21:56:38.111Z,42.07
2018-08-03T21:59:06.346Z,42.06
2018-08-03T22:01:34.531Z,42.72
2018-08-03T22:04:02.725Z,42.67
2018-08-03T22:06:30.925Z,42.61
2018-08-03T22:08:59.086Z,42.87
2018-08-03T22:11:27.331Z,42.95
2018-08-03T22:13:55.523Z,42.99
2018-08-03T22:16:23.722Z,43.57
2018-08-03T22:18:51.988Z,43.49
2018-08-03T22:21:20.134Z,44.05
2018-08-03T22:23:48.318Z,44.23
2018-08-03T22:26:16.496Z,44.38
2018-08-03T22:28:44.702Z,43.53
2018-08-03T22:31:12.911Z,44.26
2018-08-03T22:33:41.069Z,43.62
2018-08-03T22:36:09.266Z,42.96
2018-08-03T22:38:37.460Z,43.93
2018-08-03T22:41:05.638Z,44.06
2018-08-03T22:43:33.828Z,43.53
2018-08-03T22:46:02.013Z,42.54
2018-08-03T22:48:30.207Z,42.91
2018-08-03T22:50:58.391Z,42.67
2018-08-03T22:53:26.570Z,43.02
2018-08-03T22:55:54.767Z,43.53
2018-08-03T22:58:22.943Z,43.09
2018-08-03T23:00:51.123Z,43.18
2018-08-03T23:03:19.378Z,43.28
2018-08-03T23:05:47.550Z,43.99
2018-08-03T23:08:15.821Z,43.39
2018-08-03T23:10:43.970Z,43.82
2018-08-03T23:13:12.142Z,44.09
2018-08-03T23:15:40.399Z,44.13
2018-08-03T23:18:08.570Z,44.38
2018-08-03T23:20:36.749Z,44.01
2018-08-03T23:23:04.958Z,44.58
2018-08-03T23:25:33.162Z,45.14
2018-08-03T23:28:01.358Z,44.48
2018-08-03T23:30:29.564Z,44.48
2018-08-03T23:32:57.773Z,44.94
2018-08-03T23:35:25.957Z,44.91
2018-08-03T23:37:54.171Z,45.31
2018-08-03T23:40:22.411Z,45.12
2018-08-03T23:42:50.601Z,44.76
2018-08-03T23:45:18.771Z,44.99
2018-08-03T23:47:46.986Z,44.73
2018-08-03T23:50:18.242Z,44.75
2018-08-03T23:52:47.932Z,44.42
2018-08-03T23:55:16.403Z,44.77
2018-08-03T23:57:44.946Z,45.09
